createdAt,value
2024-02-18T00:01:01.380Z,1031.8
2024-02-18T00:02:17.495Z,1031.7
2024-02-18T00:03:33.596Z,1031.7
2024-02-18T00:04:49.704Z,1031.7
2024-02-18T00:06:05.813Z,1031.7
2024-02-18T00:07:21.924Z,1031.7
2024-02-18T00:08:38.016Z,1031.6
2024-02-18T00:09:54.117Z,1031.7
2024-02-18T00:11:10.239Z,1031.6
2024-02-18T00:12:26.334Z,1031.6
2024-02-18T00:13:42.425Z,1031.6
2024-02-18T00:14:58.515Z,1031.5
2024-02-18T00:16:14.631Z,1031.5
2024-02-18T00:17:29.744Z,1031.6
2024-02-18T00:18:45.837Z,1031.5
2024-02-18T00:20:01.940Z,1031.6
2024-02-18T00:21:18.049Z,1031.6
2024-02-18T00:22:34.149Z,1031.6
2024-02-18T00:23:50.251Z,1031.6
2024-02-18T00:25:06.337Z,1031.6
2024-02-18T00:26:22.455Z,1031.6
2024-02-18T00:27:38.547Z,1031.6
2024-02-18T00:28:54.649Z,1031.6
2024-02-18T00:30:10.751Z,1031.6
2024-02-18T00:31:26.852Z,1031.6
2024-02-18T00:32:42.952Z,1031.6
2024-02-18T00:33:59.054Z,1031.5
2024-02-18T00:35:15.148Z,1031.5
2024-02-18T00:36:30.268Z,1031.5
2024-02-18T00:37:46.377Z,1031.4
2024-02-18T00:39:02.478Z,1031.4
2024-02-18T00:40:18.586Z,1031.4
2024-02-18T00:41:34.688Z,1031.4
2024-02-18T00:42:50.790Z,1031.4
2024-02-18T00:44:06.883Z,1031.5
2024-02-18T00:45:22.993Z,1031.4
2024-02-18T00:46:39.088Z,1031.4
2024-02-18T00:47:55.189Z,1031.4
2024-02-18T00:49:11.303Z,1031.4
2024-02-18T00:50:27.404Z,1031.3
2024-02-18T00:51:43.499Z,1031.4
2024-02-18T00:52:59.600Z,1031.3
2024-02-18T00:54:14.728Z,1031.3
2024-02-18T00:55:30.829Z,1031.3
2024-02-18T00:56:46.912Z,1031.2
2024-02-18T00:58:03.023Z,1031.2
2024-02-18T00:59:19.125Z,1031.2
2024-02-18T01:00:35.220Z,1031.2
2024-02-18T01:01:51.336Z,1031.2
2024-02-18T01:03:07.417Z,1031.2
2024-02-18T01:04:23.524Z,1031.2
2024-02-18T01:05:39.633Z,1031.1
2024-02-18T01:06:55.727Z,1031.1
2024-02-18T01:08:11.813Z,1031.1
2024-02-18T01:09:27.916Z,1031.1
2024-02-18T01:10:44.023Z,1031.1
2024-02-18T01:11:59.129Z,1031.1
2024-02-18T01:13:15.231Z,1031.1
2024-02-18T01:14:31.328Z,1031.1
2024-02-18T01:15:47.413Z,1031.1
2024-02-18T01:17:03.517Z,1031
2024-02-18T01:18:19.599Z,1031
2024-02-18T01:19:35.713Z,1031
2024-02-18T01:20:51.811Z,1031
2024-02-18T01:22:07.890Z,1031
2024-02-18T01:23:23.986Z,1031
2024-02-18T01:24:40.085Z,1031
2024-02-18T01:25:56.182Z,1031
2024-02-18T01:27:12.289Z,1031
2024-02-18T01:28:28.389Z,1031
2024-02-18T01:29:43.519Z,1031
2024-02-18T01:30:59.625Z,1031
2024-02-18T01:32:15.719Z,1031
2024-02-18T01:33:31.815Z,1030.9
2024-02-18T01:34:47.917Z,1030.9
2024-02-18T01:36:04.010Z,1030.9
2024-02-18T01:37:20.098Z,1030.9
2024-02-18T01:38:36.187Z,1030.9
2024-02-18T01:39:52.287Z,1030.9
2024-02-18T01:41:08.395Z,1030.9
2024-02-18T01:42:24.481Z,1030.9
2024-02-18T01:43:40.563Z,1030.8
2024-02-18T01:44:56.671Z,1030.8
2024-02-18T01:46:12.763Z,1030.8
2024-02-18T01:47:27.875Z,1030.8
2024-02-18T01:48:43.986Z,1030.7
2024-02-18T01:50:00.087Z,1030.7
2024-02-18T01:51:16.168Z,1030.7
2024-02-18T01:52:32.276Z,1030.7
2024-02-18T01:53:48.371Z,1030.7
2024-02-18T01:55:04.457Z,1030.7
2024-02-18T01:56:20.558Z,1030.7
2024-02-18T01:57:36.654Z,1030.7
2024-02-18T01:58:52.754Z,1030.7
2024-02-18T02:00:08.856Z,1030.7
2024-02-18T02:01:24.943Z,1030.7
2024-02-18T02:02:41.040Z,1030.7
2024-02-18T02:03:57.132Z,1030.7
2024-02-18T02:05:12.260Z,1030.7
2024-02-18T02:07:44.432Z,1030.7
2024-02-18T02:09:00.528Z,1030.7
2024-02-18T02:10:16.629Z,1030.6
2024-02-18T02:11:32.716Z,1030.6
2024-02-18T02:12:48.824Z,1030.6
2024-02-18T02:14:04.919Z,1030.6
2024-02-18T02:15:21.014Z,1030.5
2024-02-18T02:16:37.115Z,1030.6
2024-02-18T02:17:53.202Z,1030.6
2024-02-18T02:19:09.303Z,1030.5
2024-02-18T02:20:25.412Z,1030.5
2024-02-18T02:21:41.500Z,1030.5
2024-02-18T02:22:56.621Z,1030.5
2024-02-18T02:24:12.727Z,1030.5
2024-02-18T02:25:28.829Z,1030.5
2024-02-18T02:26:44.923Z,1030.4
2024-02-18T02:28:01.010Z,1030.5
2024-02-18T02:29:17.126Z,1030.4
2024-02-18T02:30:33.222Z,1030.5
2024-02-18T02:31:49.309Z,1030.4
2024-02-18T02:33:05.423Z,1030.4
2024-02-18T02:34:21.517Z,1030.5
2024-02-18T02:35:37.611Z,1030.5
2024-02-18T02:36:53.714Z,1030.4
2024-02-18T02:38:09.815Z,1030.5
2024-02-18T02:39:25.921Z,1030.4
2024-02-18T02:40:41.042Z,1030.4
2024-02-18T02:41:57.143Z,1030.3
2024-02-18T02:43:13.232Z,1030.3
2024-02-18T02:44:29.338Z,1030.3
2024-02-18T02:45:45.434Z,1030.3
2024-02-18T02:47:01.542Z,1030.4
2024-02-18T02:48:17.650Z,1030.3
2024-02-18T02:49:33.745Z,1030.3
2024-02-18T02:50:49.840Z,1030.3
2024-02-18T02:52:05.933Z,1030.3
2024-02-18T02:53:22.034Z,1030.2
2024-02-18T02:54:38.145Z,1030.3
2024-02-18T02:55:54.223Z,1030.2
2024-02-18T02:57:10.324Z,1030.2
2024-02-18T02:58:25.453Z,1030.3
2024-02-18T02:59:41.539Z,1030.2
2024-02-18T03:00:57.625Z,1030.2
2024-02-18T03:02:13.730Z,1030.2
2024-02-18T03:03:29.833Z,1030.1
2024-02-18T03:04:45.929Z,1030.1
2024-02-18T03:06:02.025Z,1030.2
2024-02-18T03:07:18.126Z,1030.1
2024-02-18T03:08:34.221Z,1030.1
2024-02-18T03:09:50.328Z,1030.1
2024-02-18T03:11:06.429Z,1030.1
2024-02-18T03:12:22.515Z,1030.1
2024-02-18T03:13:38.625Z,1030
2024-02-18T03:14:54.727Z,1030
2024-02-18T03:16:09.832Z,1030
2024-02-18T03:17:25.940Z,1029.9
2024-02-18T03:18:42.036Z,1030
2024-02-18T03:19:58.129Z,1029.9
2024-02-18T03:21:14.224Z,1029.9
2024-02-18T03:22:30.320Z,1029.9
2024-02-18T03:23:46.419Z,1029.9
2024-02-18T03:25:02.513Z,1029.9
2024-02-18T03:26:18.622Z,1029.8
2024-02-18T03:27:34.731Z,1029.8
2024-02-18T03:28:50.819Z,1029.8
2024-02-18T03:30:06.919Z,1029.8
2024-02-18T03:31:23.027Z,1029.8
2024-02-18T03:32:39.129Z,1029.8
2024-02-18T03:33:54.237Z,1029.8
2024-02-18T03:35:10.349Z,1029.8
2024-02-18T03:36:26.440Z,1029.8
2024-02-18T03:37:42.531Z,1029.8
2024-02-18T03:38:57.667Z,1029.8
2024-02-18T03:40:13.760Z,1029.8
2024-02-18T03:41:29.854Z,1029.8
2024-02-18T03:42:45.956Z,1029.8
2024-02-18T03:44:02.060Z,1029.8
2024-02-18T03:45:18.145Z,1029.8
2024-02-18T03:46:34.246Z,1029.8
2024-02-18T03:47:50.345Z,1029.8
2024-02-18T03:49:06.441Z,1029.8
2024-02-18T03:50:22.550Z,1029.8
2024-02-18T03:51:38.650Z,1029.8
2024-02-18T03:52:54.738Z,1029.7
2024-02-18T03:54:10.835Z,1029.7
2024-02-18T03:55:26.943Z,1029.7
2024-02-18T03:56:42.054Z,1029.8
2024-02-18T03:57:58.140Z,1029.8
2024-02-18T03:59:14.257Z,1029.8
2024-02-18T04:00:30.344Z,1029.8
2024-02-18T04:01:46.439Z,1029.7
2024-02-18T04:03:02.533Z,1029.7
2024-02-18T04:04:18.627Z,1029.7
2024-02-18T04:05:34.721Z,1029.7
2024-02-18T04:06:50.824Z,1029.6
2024-02-18T04:08:06.923Z,1029.6
2024-02-18T04:09:23.039Z,1029.6
2024-02-18T04:10:39.140Z,1029.6
2024-02-18T04:11:55.234Z,1029.6
2024-02-18T04:13:11.330Z,1029.6
2024-02-18T04:14:26.460Z,1029.5
2024-02-18T04:15:42.572Z,1029.5
2024-02-18T04:16:58.680Z,1029.5
2024-02-18T04:18:14.774Z,1029.4
2024-02-18T04:19:30.897Z,1029.4
2024-02-18T04:20:46.991Z,1029.4
2024-02-18T04:22:03.106Z,1029.4
2024-02-18T04:23:19.201Z,1029.4
2024-02-18T04:24:35.323Z,1029.4
2024-02-18T04:25:51.417Z,1029.3
2024-02-18T04:27:07.507Z,1029.2
2024-02-18T04:28:23.620Z,1029.3
2024-02-18T04:29:39.706Z,1029.3
2024-02-18T04:30:55.810Z,1029.2
2024-02-18T04:32:10.935Z,1029.2
2024-02-18T04:33:27.023Z,1029.2
2024-02-18T04:34:43.124Z,1029.2
2024-02-18T04:35:59.240Z,1029.2
2024-02-18T04:37:15.333Z,1029.1
2024-02-18T04:38:31.423Z,1029.1
2024-02-18T04:39:47.530Z,1029.1
2024-02-18T04:41:03.625Z,1029.1
2024-02-18T04:42:19.726Z,1029.1
2024-02-18T04:43:35.826Z,1029.1
2024-02-18T04:44:51.927Z,1029.1
2024-02-18T04:46:08.012Z,1029.1
2024-02-18T04:47:24.118Z,1029.1
2024-02-18T04:48:40.212Z,1029
2024-02-18T04:49:55.338Z,1029.1
2024-02-18T04:51:11.439Z,1029.1
2024-02-18T04:52:27.536Z,1029.1
2024-02-18T04:53:43.642Z,1029.1
2024-02-18T04:54:59.742Z,1029.1
2024-02-18T04:56:15.841Z,1029.1
2024-02-18T04:57:31.920Z,1029.1
2024-02-18T04:58:48.033Z,1029
2024-02-18T05:00:04.129Z,1029
2024-02-18T05:01:20.237Z,1029
2024-02-18T05:02:36.323Z,1029
2024-02-18T05:03:52.438Z,1029
2024-02-18T05:05:08.533Z,1029
2024-02-18T05:06:24.640Z,1028.9
2024-02-18T05:07:39.769Z,1028.9
2024-02-18T05:08:55.863Z,1028.9
2024-02-18T05:10:11.970Z,1028.9
2024-02-18T05:11:28.071Z,1028.9
2024-02-18T05:12:44.188Z,1028.8
2024-02-18T05:14:00.282Z,1028.8
2024-02-18T05:15:16.382Z,1028.8
2024-02-18T05:16:32.485Z,1028.8
2024-02-18T05:17:48.588Z,1028.8
2024-02-18T05:19:04.702Z,1028.7
2024-02-18T05:20:20.816Z,1028.7
2024-02-18T05:21:36.919Z,1028.8
2024-02-18T05:22:53.030Z,1028.8
2024-02-18T05:24:09.122Z,1028.8
2024-02-18T05:25:24.260Z,1028.8
2024-02-18T05:26:40.356Z,1028.7
2024-02-18T05:27:56.480Z,1028.7
2024-02-18T05:29:12.575Z,1028.8
2024-02-18T05:30:28.668Z,1028.7
2024-02-18T05:31:44.775Z,1028.8
2024-02-18T05:33:00.884Z,1028.8
2024-02-18T05:34:17.000Z,1028.7
2024-02-18T05:35:33.109Z,1028.7
2024-02-18T05:36:49.224Z,1028.7
2024-02-18T05:38:05.339Z,1028.7
2024-02-18T05:39:21.441Z,1028.7
2024-02-18T05:40:37.550Z,1028.6
2024-02-18T05:41:52.683Z,1028.6
2024-02-18T05:43:08.792Z,1028.6
2024-02-18T05:44:24.906Z,1028.6
2024-02-18T05:45:41.015Z,1028.6
2024-02-18T05:46:57.124Z,1028.5
2024-02-18T05:48:13.240Z,1028.6
2024-02-18T05:49:29.341Z,1028.5
2024-02-18T05:50:45.456Z,1028.5
2024-02-18T05:52:01.573Z,1028.5
2024-02-18T05:53:17.666Z,1028.5
2024-02-18T05:54:33.790Z,1028.4
2024-02-18T05:55:49.890Z,1028.4
2024-02-18T05:57:06.000Z,1028.4
2024-02-18T05:58:22.093Z,1028.4
2024-02-18T05:59:38.213Z,1028.4
2024-02-18T06:00:53.335Z,1028.3
2024-02-18T06:02:09.458Z,1028.4
2024-02-18T06:03:25.574Z,1028.3
2024-02-18T06:04:41.678Z,1028.3
2024-02-18T06:05:57.785Z,1028.3
2024-02-18T06:07:13.906Z,1028.3
2024-02-18T06:08:30.001Z,1028.3
2024-02-18T06:09:46.115Z,1028.3
2024-02-18T06:11:02.231Z,1028.3
2024-02-18T06:12:18.331Z,1028.3
2024-02-18T06:13:34.440Z,1028.2
2024-02-18T06:14:50.563Z,1028.2
2024-02-18T06:16:06.678Z,1028.2
2024-02-18T06:17:22.780Z,1028.2
2024-02-18T06:18:37.899Z,1028.2
2024-02-18T06:19:54.010Z,1028.2
2024-02-18T06:21:10.118Z,1028.2
2024-02-18T06:22:26.233Z,1028.2
2024-02-18T06:23:42.341Z,1028.1
2024-02-18T06:24:58.464Z,1028.1
2024-02-18T06:26:14.579Z,1028.1
2024-02-18T06:27:30.702Z,1028.1
2024-02-18T06:28:46.817Z,1028
2024-02-18T06:30:02.903Z,1028
2024-02-18T06:31:19.014Z,1028
2024-02-18T06:32:35.128Z,1028
2024-02-18T06:33:51.251Z,1028
2024-02-18T06:35:07.353Z,1028
2024-02-18T06:36:22.486Z,1028
2024-02-18T06:37:38.579Z,1028
2024-02-18T06:38:54.688Z,1028
2024-02-18T06:40:10.796Z,1028
2024-02-18T06:41:26.896Z,1027.9
2024-02-18T06:42:43.007Z,1027.9
2024-02-18T06:43:59.118Z,1027.9
2024-02-18T06:45:15.245Z,1027.9
2024-02-18T06:46:31.344Z,1027.9
2024-02-18T06:47:47.468Z,1027.9
2024-02-18T06:49:03.574Z,1027.9
2024-02-18T06:50:19.664Z,1027.8
2024-02-18T06:51:35.787Z,1027.8
2024-02-18T06:52:50.920Z,1027.8
2024-02-18T06:54:07.022Z,1027.8
2024-02-18T06:55:23.138Z,1027.7
2024-02-18T06:56:39.239Z,1027.7
2024-02-18T06:57:55.356Z,1027.7
2024-02-18T06:59:11.477Z,1027.7
2024-02-18T07:00:27.579Z,1027.6
2024-02-18T07:01:43.693Z,1027.6
2024-02-18T07:02:59.789Z,1027.6
2024-02-18T07:04:15.911Z,1027.6
2024-02-18T07:05:32.013Z,1027.5
2024-02-18T07:06:48.143Z,1027.5
2024-02-18T07:08:04.250Z,1027.5
2024-02-18T07:09:19.375Z,1027.5
2024-02-18T07:10:35.471Z,1027.6
2024-02-18T07:11:51.572Z,1027.5
2024-02-18T07:13:07.688Z,1027.5
2024-02-18T07:14:23.803Z,1027.4
2024-02-18T07:15:39.898Z,1027.4
2024-02-18T07:16:56.006Z,1027.4
2024-02-18T07:18:12.121Z,1027.4
2024-02-18T07:19:28.230Z,1027.4
2024-02-18T07:20:44.338Z,1027.3
2024-02-18T07:22:00.441Z,1027.4
2024-02-18T07:23:16.547Z,1027.3
2024-02-18T07:24:32.657Z,1027.3
2024-02-18T07:25:47.798Z,1027.3
2024-02-18T07:27:03.903Z,1027.3
2024-02-18T07:28:20.015Z,1027.3
2024-02-18T07:29:36.123Z,1027.3
2024-02-18T07:30:52.224Z,1027.3
2024-02-18T07:32:08.340Z,1027.2
2024-02-18T07:33:24.441Z,1027.2
2024-02-18T07:34:40.563Z,1027.2
2024-02-18T07:35:56.679Z,1027.2
2024-02-18T07:37:12.788Z,1027.2
2024-02-18T07:38:28.888Z,1027.2
2024-02-18T07:39:45.011Z,1027.2
2024-02-18T07:41:01.113Z,1027.1
2024-02-18T07:42:16.247Z,1027.1
2024-02-18T07:43:32.347Z,1027.1
2024-02-18T07:44:48.457Z,1027.1
2024-02-18T07:46:04.564Z,1027.1
2024-02-18T07:47:20.673Z,1027.1
2024-02-18T07:48:36.775Z,1027.1
2024-02-18T07:49:52.898Z,1027.1
2024-02-18T07:51:08.990Z,1027.1
2024-02-18T07:52:25.109Z,1027.1
2024-02-18T07:53:40.241Z,1027
2024-02-18T07:54:56.342Z,1027.1
2024-02-18T07:56:12.466Z,1027
2024-02-18T07:57:28.566Z,1027
2024-02-18T07:58:44.688Z,1026.9
2024-02-18T08:00:00.811Z,1026.9
2024-02-18T08:01:16.919Z,1027
2024-02-18T08:02:33.028Z,1026.9
2024-02-18T08:03:49.138Z,1026.9
2024-02-18T08:05:05.245Z,1026.9
2024-02-18T08:06:21.360Z,1026.9
2024-02-18T08:07:37.490Z,1026.8
2024-02-18T08:08:53.584Z,1026.8
2024-02-18T08:10:08.719Z,1026.8
2024-02-18T08:11:24.839Z,1026.8
2024-02-18T08:12:40.957Z,1026.8
2024-02-18T08:13:57.071Z,1026.8
2024-02-18T08:15:13.186Z,1026.8
2024-02-18T08:16:29.274Z,1026.8
2024-02-18T08:17:45.403Z,1026.8
2024-02-18T08:19:01.505Z,1026.7
2024-02-18T08:20:17.614Z,1026.7
2024-02-18T08:21:33.729Z,1026.7
2024-02-18T08:22:49.845Z,1026.7
2024-02-18T08:24:05.967Z,1026.7
2024-02-18T08:25:22.072Z,1026.7
2024-02-18T08:26:38.177Z,1026.7
2024-02-18T08:27:53.290Z,1026.6
2024-02-18T08:29:09.398Z,1026.6
2024-02-18T08:30:25.499Z,1026.6
2024-02-18T08:31:41.616Z,1026.6
2024-02-18T08:32:57.723Z,1026.5
2024-02-18T08:34:13.839Z,1026.6
2024-02-18T08:35:29.940Z,1026.5
2024-02-18T08:36:46.042Z,1026.5
2024-02-18T08:38:02.154Z,1026.5
2024-02-18T08:39:18.251Z,1026.5
2024-02-18T08:40:34.360Z,1026.5
2024-02-18T08:41:50.461Z,1026.4
2024-02-18T08:43:06.569Z,1026.4
2024-02-18T08:44:22.684Z,1026.4
2024-02-18T08:45:37.803Z,1026.3
2024-02-18T08:46:53.922Z,1026.4
2024-02-18T08:48:10.035Z,1026.3
2024-02-18T08:49:26.153Z,1026.3
2024-02-18T08:50:42.253Z,1026.3
2024-02-18T08:51:58.376Z,1026.3
2024-02-18T08:53:14.484Z,1026.3
2024-02-18T08:54:30.593Z,1026.2
2024-02-18T08:55:46.700Z,1026.2
2024-02-18T08:57:02.794Z,1026.1
2024-02-18T08:58:18.924Z,1026.1
2024-02-18T08:59:35.026Z,1026.1
2024-02-18T09:00:51.141Z,1026.1
2024-02-18T09:02:06.288Z,1026.1
2024-02-18T09:03:22.397Z,1026
2024-02-18T09:05:54.616Z,1026.1
2024-02-18T09:08:26.846Z,1026.1
2024-02-18T09:09:42.946Z,1026
2024-02-18T09:10:59.055Z,1026
2024-02-18T09:12:15.185Z,1026
2024-02-18T09:13:31.301Z,1026
2024-02-18T09:14:47.404Z,1026
2024-02-18T09:16:03.503Z,1026
2024-02-18T09:17:19.619Z,1025.9
2024-02-18T09:18:34.738Z,1026
2024-02-18T09:19:50.855Z,1025.9
2024-02-18T09:21:06.956Z,1025.9
2024-02-18T09:22:23.063Z,1025.9
2024-02-18T09:23:39.171Z,1025.9
2024-02-18T09:24:55.294Z,1025.8
2024-02-18T09:26:11.403Z,1025.8
2024-02-18T09:27:27.518Z,1025.8
2024-02-18T09:28:43.619Z,1025.8
2024-02-18T09:29:59.749Z,1025.8
2024-02-18T09:31:15.851Z,1025.7
2024-02-18T09:32:31.958Z,1025.7
2024-02-18T09:33:48.089Z,1025.8
2024-02-18T09:36:19.317Z,1025.8
2024-02-18T09:37:35.405Z,1025.7
2024-02-18T09:38:51.517Z,1025.7
2024-02-18T09:40:07.614Z,1025.7
2024-02-18T09:41:23.738Z,1025.7
2024-02-18T09:42:39.852Z,1025.7
2024-02-18T09:43:55.954Z,1025.7
2024-02-18T09:45:12.068Z,1025.7
2024-02-18T09:46:28.173Z,1025.7
2024-02-18T09:47:44.294Z,1025.7
2024-02-18T09:49:00.408Z,1025.7
2024-02-18T09:50:16.524Z,1025.7
2024-02-18T09:51:31.651Z,1025.7
2024-02-18T09:52:47.773Z,1025.7
2024-02-18T09:54:03.888Z,1025.7
2024-02-18T09:55:20.004Z,1025.6
2024-02-18T09:56:36.131Z,1025.6
2024-02-18T09:57:52.243Z,1025.6
2024-02-18T09:59:08.351Z,1025.6
2024-02-18T10:00:24.472Z,1025.6
2024-02-18T10:01:40.591Z,1025.5
2024-02-18T10:02:56.689Z,1025.5
2024-02-18T10:04:12.807Z,1025.5
2024-02-18T10:05:28.906Z,1025.5
2024-02-18T10:06:45.022Z,1025.5
2024-02-18T10:08:00.135Z,1025.5
2024-02-18T10:09:16.243Z,1025.5
2024-02-18T10:10:32.367Z,1025.4
2024-02-18T10:11:48.481Z,1025.4
2024-02-18T10:13:04.588Z,1025.4
2024-02-18T10:14:20.696Z,1025.4
2024-02-18T10:15:36.812Z,1025.3
2024-02-18T10:16:52.909Z,1025.3
2024-02-18T10:18:09.023Z,1025.3
2024-02-18T10:19:25.130Z,1025.3
2024-02-18T10:20:41.247Z,1025.3
2024-02-18T10:21:57.342Z,1025.2
2024-02-18T10:23:13.442Z,1025.2
2024-02-18T10:24:28.570Z,1025.2
2024-02-18T10:25:44.690Z,1025.2
2024-02-18T10:27:00.785Z,1025.1
2024-02-18T10:28:16.902Z,1025.2
2024-02-18T10:29:33.010Z,1025.1
2024-02-18T10:30:49.119Z,1025.1
2024-02-18T10:32:05.227Z,1025.1
2024-02-18T10:33:21.329Z,1025.1
2024-02-18T10:34:37.438Z,1025.1
2024-02-18T10:35:53.538Z,1025.1
2024-02-18T10:37:09.654Z,1025.1
2024-02-18T10:38:25.762Z,1025.1
2024-02-18T10:39:41.864Z,1025.1
2024-02-18T10:40:56.998Z,1025.1
2024-02-18T10:42:13.122Z,1025
2024-02-18T10:43:29.228Z,1025
2024-02-18T10:44:45.345Z,1025
2024-02-18T10:46:01.460Z,1025
2024-02-18T10:47:17.568Z,1024.9
2024-02-18T10:48:33.672Z,1024.9
2024-02-18T10:49:49.794Z,1024.8
2024-02-18T10:51:05.899Z,1024.8
2024-02-18T10:52:22.023Z,1024.7
2024-02-18T10:53:38.139Z,1024.8
2024-02-18T10:54:54.242Z,1024.8
2024-02-18T10:56:10.356Z,1024.7
2024-02-18T10:57:25.496Z,1024.7
2024-02-18T10:58:41.625Z,1024.7
2024-02-18T10:59:57.734Z,1024.7
2024-02-18T11:01:13.835Z,1024.7
2024-02-18T11:02:29.963Z,1024.7
2024-02-18T11:03:46.068Z,1024.7
2024-02-18T11:05:02.184Z,1024.6
2024-02-18T11:06:18.311Z,1024.7
2024-02-18T11:07:34.426Z,1024.7
2024-02-18T11:08:50.521Z,1024.6
2024-02-18T11:10:06.636Z,1024.7
2024-02-18T11:11:22.752Z,1024.6
2024-02-18T11:12:38.882Z,1024.6
2024-02-18T11:13:54.014Z,1024.6
2024-02-18T11:15:10.131Z,1024.6
2024-02-18T11:16:26.262Z,1024.6
2024-02-18T11:17:42.361Z,1024.6
2024-02-18T11:18:58.484Z,1024.5
2024-02-18T11:20:14.593Z,1024.5
2024-02-18T11:21:30.719Z,1024.5
2024-02-18T11:22:46.832Z,1024.5
2024-02-18T11:24:02.946Z,1024.5
2024-02-18T11:25:19.062Z,1024.5
2024-02-18T11:26:35.179Z,1024.5
2024-02-18T11:27:51.300Z,1024.4
2024-02-18T11:29:07.422Z,1024.4
2024-02-18T11:30:22.542Z,1024.3
2024-02-18T11:31:38.666Z,1024.3
2024-02-18T11:32:54.788Z,1024.3
2024-02-18T11:34:10.903Z,1024.2
2024-02-18T11:35:27.019Z,1024.1
2024-02-18T11:36:43.134Z,1024.1
2024-02-18T11:37:59.257Z,1024.1
2024-02-18T11:39:15.382Z,1024
2024-02-18T11:40:31.495Z,1023.9
2024-02-18T11:41:47.603Z,1023.9
2024-02-18T11:43:03.703Z,1023.8
2024-02-18T11:44:19.833Z,1023.8
2024-02-18T11:45:35.935Z,1023.8
2024-02-18T11:46:51.083Z,1023.7
2024-02-18T11:48:07.185Z,1023.6
2024-02-18T11:49:23.307Z,1023.6
2024-02-18T11:50:39.443Z,1023.5
2024-02-18T11:51:55.552Z,1023.5
2024-02-18T11:53:11.660Z,1023.4
2024-02-18T11:54:27.790Z,1023.4
2024-02-18T11:55:43.898Z,1023.4
2024-02-18T11:57:00.022Z,1023.3
2024-02-18T11:58:16.142Z,1023.3
2024-02-18T11:59:32.267Z,1023.2
2024-02-18T12:00:48.375Z,1023.2
2024-02-18T12:02:04.484Z,1023.2
2024-02-18T12:03:19.631Z,1023.1
2024-02-18T12:04:35.733Z,1023
2024-02-18T12:05:51.855Z,1022.9
2024-02-18T12:07:07.956Z,1022.8
2024-02-18T12:08:24.080Z,1022.7
2024-02-18T12:09:40.172Z,1022.7
2024-02-18T12:10:55.306Z,1022.7
2024-02-18T12:12:11.426Z,1022.6
2024-02-18T12:13:27.539Z,1022.6
2024-02-18T12:14:43.632Z,1022.5
2024-02-18T12:15:59.755Z,1022.5
2024-02-18T12:17:15.863Z,1022.5
2024-02-18T12:18:31.980Z,1022.4
2024-02-18T12:19:48.094Z,1022.5
2024-02-18T12:21:04.189Z,1022.4
2024-02-18T12:22:20.294Z,1022.4
2024-02-18T12:23:36.420Z,1022.4
2024-02-18T12:24:52.523Z,1022.3
2024-02-18T12:26:08.636Z,1022.4
2024-02-18T12:27:23.763Z,1022.3
2024-02-18T12:28:39.870Z,1022.2
2024-02-18T12:29:55.974Z,1022.2
2024-02-18T12:31:12.089Z,1022.2
2024-02-18T12:32:28.190Z,1022.2
2024-02-18T12:33:44.302Z,1022.2
2024-02-18T12:35:00.419Z,1022.1
2024-02-18T12:36:16.537Z,1022.1
2024-02-18T12:37:32.631Z,1022
2024-02-18T12:38:48.754Z,1022
2024-02-18T12:40:04.855Z,1021.9
2024-02-18T12:41:20.976Z,1021.9
2024-02-18T12:42:37.080Z,1022
2024-02-18T12:43:52.205Z,1021.8
2024-02-18T12:45:08.321Z,1021.8
2024-02-18T12:46:24.437Z,1021.7
2024-02-18T12:47:40.531Z,1021.7
2024-02-18T12:48:56.653Z,1021.6
2024-02-18T12:50:12.768Z,1021.6
2024-02-18T12:51:28.872Z,1021.6
2024-02-18T12:52:44.965Z,1021.6
2024-02-18T12:54:01.072Z,1021.5
2024-02-18T12:55:17.195Z,1021.5
2024-02-18T12:56:33.290Z,1021.5
2024-02-18T12:57:49.412Z,1021.5
2024-02-18T12:59:05.520Z,1021.5
2024-02-18T13:00:21.638Z,1021.4
2024-02-18T13:01:36.749Z,1021.4
2024-02-18T13:02:52.871Z,1021.4
2024-02-18T13:04:08.986Z,1021.4
2024-02-18T13:05:25.088Z,1021.4
2024-02-18T13:06:41.196Z,1021.4
2024-02-18T13:07:57.321Z,1021.3
2024-02-18T13:09:13.435Z,1021.3
2024-02-18T13:10:29.550Z,1021.3
2024-02-18T13:11:45.651Z,1021.3
2024-02-18T13:13:01.765Z,1021.3
2024-02-18T13:14:17.875Z,1021.3
2024-02-18T13:15:33.983Z,1021.2
2024-02-18T13:16:50.113Z,1021.2
2024-02-18T13:18:06.215Z,1021.2
2024-02-18T13:19:22.316Z,1021.2
2024-02-18T13:20:37.464Z,1021.2
2024-02-18T13:21:53.566Z,1021.1
2024-02-18T13:23:09.693Z,1021.1
2024-02-18T13:24:25.804Z,1021.1
2024-02-18T13:25:41.905Z,1021
2024-02-18T13:26:58.034Z,1021
2024-02-18T13:28:14.143Z,1020.9
2024-02-18T13:29:30.265Z,1020.8
2024-02-18T13:30:46.381Z,1021
2024-02-18T13:32:02.496Z,1021
2024-02-18T13:33:18.612Z,1021
2024-02-18T13:34:34.730Z,1021
2024-02-18T13:35:50.863Z,1021
2024-02-18T13:37:05.998Z,1021
2024-02-18T13:38:22.119Z,1020.9
2024-02-18T13:39:38.228Z,1020.9
2024-02-18T13:40:54.358Z,1020.9
2024-02-18T13:42:10.474Z,1020.9
2024-02-18T13:43:26.596Z,1021
2024-02-18T13:44:42.704Z,1020.9
2024-02-18T13:45:58.828Z,1020.9
2024-02-18T13:47:14.943Z,1021
2024-02-18T13:48:31.058Z,1020.9
2024-02-18T13:49:47.188Z,1020.9
2024-02-18T13:51:03.307Z,1020.9
2024-02-18T13:52:19.433Z,1020.8
2024-02-18T13:53:34.566Z,1020.9
2024-02-18T13:54:50.682Z,1020.8
2024-02-18T13:56:06.791Z,1020.8
2024-02-18T13:57:22.928Z,1020.8
2024-02-18T13:58:39.050Z,1020.8
2024-02-18T13:59:55.158Z,1020.8
2024-02-18T14:01:11.288Z,1020.7
2024-02-18T14:02:27.411Z,1020.6
2024-02-18T14:03:43.533Z,1020.6
2024-02-18T14:04:59.635Z,1020.5
2024-02-18T14:06:15.767Z,1020.6
2024-02-18T14:07:31.872Z,1020.6
2024-02-18T14:08:47.995Z,1020.5
2024-02-18T14:10:03.122Z,1020.4
2024-02-18T14:11:19.241Z,1020.4
2024-02-18T14:12:35.367Z,1020.4
2024-02-18T14:13:51.496Z,1020.3
2024-02-18T14:15:07.612Z,1020.3
2024-02-18T14:16:23.721Z,1020.3
2024-02-18T14:17:39.856Z,1020.3
2024-02-18T14:18:55.969Z,1020.2
2024-02-18T14:20:12.077Z,1020.2
2024-02-18T14:21:28.210Z,1020.2
2024-02-18T14:22:44.326Z,1020.1
2024-02-18T14:24:00.448Z,1020.1
2024-02-18T14:25:16.559Z,1020
2024-02-18T14:26:31.697Z,1020
2024-02-18T14:27:47.812Z,1020
2024-02-18T14:29:03.942Z,1020
2024-02-18T14:30:20.065Z,1019.9
2024-02-18T14:31:36.190Z,1019.9
2024-02-18T14:32:52.303Z,1019.9
2024-02-18T14:34:08.424Z,1019.8
2024-02-18T14:35:24.543Z,1019.8
2024-02-18T14:36:40.664Z,1019.8
2024-02-18T14:37:56.800Z,1019.8
2024-02-18T14:39:12.930Z,1019.7
2024-02-18T14:40:29.045Z,1019.7
2024-02-18T14:41:45.147Z,1019.6
2024-02-18T14:43:00.274Z,1019.6
2024-02-18T14:44:16.397Z,1019.6
2024-02-18T14:45:32.512Z,1019.5
2024-02-18T14:46:48.643Z,1019.6
2024-02-18T14:48:04.751Z,1019.5
2024-02-18T14:49:20.881Z,1019.4
2024-02-18T14:50:36.990Z,1019.4
2024-02-18T14:51:53.118Z,1019.4
2024-02-18T14:53:09.227Z,1019.5
2024-02-18T14:54:25.359Z,1019.5
2024-02-18T14:55:41.471Z,1019.4
2024-02-18T14:56:57.572Z,1019.3
2024-02-18T14:58:13.702Z,1019.2
2024-02-18T14:59:28.816Z,1019.2
2024-02-18T15:00:44.944Z,1019.4
2024-02-18T15:02:01.046Z,1019.4
2024-02-18T15:03:17.169Z,1019.4
2024-02-18T15:04:33.286Z,1019.3
2024-02-18T15:05:49.410Z,1019.2
2024-02-18T15:07:05.522Z,1019.1
2024-02-18T15:08:21.645Z,1019.1
2024-02-18T15:09:37.745Z,1019.3
2024-02-18T15:10:53.874Z,1019.3
2024-02-18T15:12:09.990Z,1019.2
2024-02-18T15:13:26.094Z,1019.2
2024-02-18T15:14:42.213Z,1019.2
2024-02-18T15:15:57.355Z,1019.2
2024-02-18T15:17:13.468Z,1019.1
2024-02-18T15:18:29.586Z,1019
2024-02-18T15:19:45.702Z,1018.9
2024-02-18T15:21:01.824Z,1018.9
2024-02-18T15:22:17.920Z,1019
2024-02-18T15:23:34.041Z,1018.9
2024-02-18T15:24:50.135Z,1018.8
2024-02-18T15:26:06.240Z,1018.9
2024-02-18T15:27:22.366Z,1018.9
2024-02-18T15:28:38.462Z,1018.9
2024-02-18T15:29:54.561Z,1018.8
2024-02-18T15:31:10.677Z,1018.9
2024-02-18T15:32:25.805Z,1018.8
2024-02-18T15:33:41.929Z,1018.8
2024-02-18T15:34:58.027Z,1018.9
2024-02-18T15:36:14.151Z,1018.9
2024-02-18T15:37:30.266Z,1018.7
2024-02-18T15:38:46.377Z,1018.9
2024-02-18T15:40:02.484Z,1018.8
2024-02-18T15:41:18.607Z,1018.8
2024-02-18T15:42:34.704Z,1018.8
2024-02-18T15:45:06.951Z,1018.8
2024-02-18T15:46:23.068Z,1018.7
2024-02-18T15:47:39.176Z,1018.8
2024-02-18T15:48:54.311Z,1018.8
2024-02-18T15:50:10.427Z,1018.7
2024-02-18T15:51:26.547Z,1018.7
2024-02-18T15:52:42.680Z,1018.8
2024-02-18T15:53:58.793Z,1018.7
2024-02-18T15:55:14.902Z,1018.6
2024-02-18T15:56:31.032Z,1018.7
2024-02-18T15:59:03.210Z,1018.7
2024-02-18T16:00:19.326Z,1018.6
2024-02-18T16:01:35.442Z,1018.6